sensor_id;sensor_type;location;lat;lon;timestamp;temperature;humidity
42099;DHT22;27758;55.900;8.516;2023-01-25T00:01:50;4.10;99.90
42099;DHT22;27758;55.900;8.516;2023-01-25T00:04:18;4.10;99.90
42099;DHT22;27758;55.900;8.516;2023-01-25T00:06:44;4.20;99.90
42099;DHT22;27758;55.900;8.516;2023-01-25T00:09:10;4.10;99.90
42099;DHT22;27758;55.900;8.516;2023-01-25T00:11:36;4.20;99.90
42099;DHT22;27758;55.900;8.516;2023-01-25T00:14:03;4.20;99.90
42099;DHT22;27758;55.900;8.516;2023-01-25T00:16:29;4.20;99.90
42099;DHT22;27758;55.900;8.516;2023-01-25T00:18:55;4.10;99.90
42099;DHT22;27758;55.900;8.516;2023-01-25T00:21:22;4.10;99.90
42099;DHT22;27758;55.900;8.516;2023-01-25T00:23:49;4.20;99.90
42099;DHT22;27758;55.900;8.516;2023-01-25T00:26:15;4.20;99.90
42099;DHT22;27758;55.900;8.516;2023-01-25T00:28:40;4.20;99.90
42099;DHT22;27758;55.900;8.516;2023-01-25T00:31:08;4.20;99.90
42099;DHT22;27758;55.900;8.516;2023-01-25T00:34:05;4.20;99.90
42099;DHT22;27758;55.900;8.516;2023-01-25T00:39:01;4.20;99.90
42099;DHT22;27758;55.900;8.516;2023-01-25T00:41:27;4.10;99.90
42099;DHT22;27758;55.900;8.516;2023-01-25T00:43:53;4.20;99.90
42099;DHT22;27758;55.900;8.516;2023-01-25T00:46:18;4.20;99.90
42099;DHT22;27758;55.900;8.516;2023-01-25T00:48:44;4.20;99.90
42099;DHT22;27758;55.900;8.516;2023-01-25T00:51:10;4.30;99.90
42099;DHT22;27758;55.900;8.516;2023-01-25T00:53:36;4.20;99.90
42099;DHT22;27758;55.900;8.516;2023-01-25T00:56:03;4.20;99.90
42099;DHT22;27758;55.900;8.516;2023-01-25T00:58:29;4.20;99.90
42099;DHT22;27758;55.900;8.516;2023-01-25T01:00:55;4.20;99.90
42099;DHT22;27758;55.900;8.516;2023-01-25T01:03:21;4.20;99.90
42099;DHT22;27758;55.900;8.516;2023-01-25T01:05:47;4.20;99.90
42099;DHT22;27758;55.900;8.516;2023-01-25T01:08:14;4.10;99.90
42099;DHT22;27758;55.900;8.516;2023-01-25T01:10:40;4.10;99.90
42099;DHT22;27758;55.900;8.516;2023-01-25T01:13:06;4.10;99.90
42099;DHT22;27758;55.900;8.516;2023-01-25T01:15:36;4.20;99.90
42099;DHT22;27758;55.900;8.516;2023-01-25T01:18:02;4.20;99.90
42099;DHT22;27758;55.900;8.516;2023-01-25T01:20:27;4.10;99.90
42099;DHT22;27758;55.900;8.516;2023-01-25T01:22:53;4.10;99.90
42099;DHT22;27758;55.900;8.516;2023-01-25T01:25:22;4.10;99.90
42099;DHT22;27758;55.900;8.516;2023-01-25T01:27:48;4.10;99.90
42099;DHT22;27758;55.900;8.516;2023-01-25T01:30:14;4.10;99.90
42099;DHT22;27758;55.900;8.516;2023-01-25T01:32:39;4.10;99.90
42099;DHT22;27758;55.900;8.516;2023-01-25T01:35:05;4.10;99.90
42099;DHT22;27758;55.900;8.516;2023-01-25T01:37:31;4.10;99.90
42099;DHT22;27758;55.900;8.516;2023-01-25T01:39:57;4.10;99.90
42099;DHT22;27758;55.900;8.516;2023-01-25T01:42:23;4.10;99.90
42099;DHT22;27758;55.900;8.516;2023-01-25T01:44:52;4.10;99.90
42099;DHT22;27758;55.900;8.516;2023-01-25T01:47:26;4.00;99.90
42099;DHT22;27758;55.900;8.516;2023-01-25T01:50:00;4.10;99.90
42099;DHT22;27758;55.900;8.516;2023-01-25T01:52:31;4.10;99.90
42099;DHT22;27758;55.900;8.516;2023-01-25T01:57:47;4.10;99.90
42099;DHT22;27758;55.900;8.516;2023-01-25T02:00:24;4.00;99.90
42099;DHT22;27758;55.900;8.516;2023-01-25T02:02:50;4.00;99.90
42099;DHT22;27758;55.900;8.516;2023-01-25T02:08:07;4.00;99.90
42099;DHT22;27758;55.900;8.516;2023-01-25T02:10:35;4.10;99.90
42099;DHT22;27758;55.900;8.516;2023-01-25T02:13:02;4.00;99.90
42099;DHT22;27758;55.900;8.516;2023-01-25T02:15:32;4.00;99.90
42099;DHT22;27758;55.900;8.516;2023-01-25T02:18:02;4.00;99.90
42099;DHT22;27758;55.900;8.516;2023-01-25T02:20:35;4.10;99.90
42099;DHT22;27758;55.900;8.516;2023-01-25T02:25:48;4.10;99.90
42099;DHT22;27758;55.900;8.516;2023-01-25T02:31:01;4.10;99.90
42099;DHT22;27758;55.900;8.516;2023-01-25T02:33:27;4.00;99.90
42099;DHT22;27758;55.900;8.516;2023-01-25T02:38:34;4.00;99.90
42099;DHT22;27758;55.900;8.516;2023-01-25T02:41:20;4.00;99.90
42099;DHT22;27758;55.900;8.516;2023-01-25T02:43:47;4.00;99.90
42099;DHT22;27758;55.900;8.516;2023-01-25T02:46:17;4.00;99.90
42099;DHT22;27758;55.900;8.516;2023-01-25T02:48:45;4.00;99.90
42099;DHT22;27758;55.900;8.516;2023-01-25T02:51:10;4.00;99.90
42099;DHT22;27758;55.900;8.516;2023-01-25T02:53:36;4.00;99.90
42099;DHT22;27758;55.900;8.516;2023-01-25T02:56:02;3.90;99.90
42099;DHT22;27758;55.900;8.516;2023-01-25T02:58:28;3.90;99.90
42099;DHT22;27758;55.900;8.516;2023-01-25T03:00:54;4.00;99.90
42099;DHT22;27758;55.900;8.516;2023-01-25T03:03:20;4.00;99.90
42099;DHT22;27758;55.900;8.516;2023-01-25T03:05:46;4.00;99.90
42099;DHT22;27758;55.900;8.516;2023-01-25T03:08:11;3.90;99.90
42099;DHT22;27758;55.900;8.516;2023-01-25T03:10:37;3.90;99.90
42099;DHT22;27758;55.900;8.516;2023-01-25T03:13:03;4.00;99.90
42099;DHT22;27758;55.900;8.516;2023-01-25T03:15:28;4.00;99.90
42099;DHT22;27758;55.900;8.516;2023-01-25T03:17:55;4.00;99.90
42099;DHT22;27758;55.900;8.516;2023-01-25T03:20:21;4.00;99.90
42099;DHT22;27758;55.900;8.516;2023-01-25T03:22:47;4.00;99.90
42099;DHT22;27758;55.900;8.516;2023-01-25T03:25:13;4.00;99.90
42099;DHT22;27758;55.900;8.516;2023-01-25T03:27:39;4.00;99.90
42099;DHT22;27758;55.900;8.516;2023-01-25T03:30:05;4.10;99.90
42099;DHT22;27758;55.900;8.516;2023-01-25T03:32:32;4.00;99.90
42099;DHT22;27758;55.900;8.516;2023-01-25T03:34:57;4.10;99.90
42099;DHT22;27758;55.900;8.516;2023-01-25T03:37:24;4.00;99.90
42099;DHT22;27758;55.900;8.516;2023-01-25T03:39:55;4.10;99.90
42099;DHT22;27758;55.900;8.516;2023-01-25T03:42:21;4.00;99.90
42099;DHT22;27758;55.900;8.516;2023-01-25T03:44:47;4.00;99.90
42099;DHT22;27758;55.900;8.516;2023-01-25T03:47:12;4.00;99.90
42099;DHT22;27758;55.900;8.516;2023-01-25T03:49:39;4.00;99.90
42099;DHT22;27758;55.900;8.516;2023-01-25T03:52:05;4.00;99.90
42099;DHT22;27758;55.900;8.516;2023-01-25T03:54:30;4.00;99.90
42099;DHT22;27758;55.900;8.516;2023-01-25T03:56:56;4.00;99.90
42099;DHT22;27758;55.900;8.516;2023-01-25T03:59:22;4.00;99.90
42099;DHT22;27758;55.900;8.516;2023-01-25T04:01:48;4.10;99.90
42099;DHT22;27758;55.900;8.516;2023-01-25T04:04:13;4.10;99.90
42099;DHT22;27758;55.900;8.516;2023-01-25T04:06:39;4.10;99.90
42099;DHT22;27758;55.900;8.516;2023-01-25T04:09:05;4.10;99.90
42099;DHT22;27758;55.900;8.516;2023-01-25T04:11:31;4.00;99.90
42099;DHT22;27758;55.900;8.516;2023-01-25T04:13:57;4.10;99.90
42099;DHT22;27758;55.900;8.516;2023-01-25T04:16:23;4.00;99.90
42099;DHT22;27758;55.900;8.516;2023-01-25T04:18:48;4.00;99.90
42099;DHT22;27758;55.900;8.516;2023-01-25T04:21:14;4.00;99.90
42099;DHT22;27758;55.900;8.516;2023-01-25T04:23:40;4.00;99.90
42099;DHT22;27758;55.900;8.516;2023-01-25T04:26:07;4.00;99.90
42099;DHT22;27758;55.900;8.516;2023-01-25T04:28:34;4.00;99.90
42099;DHT22;27758;55.900;8.516;2023-01-25T04:31:00;4.10;99.90
42099;DHT22;27758;55.900;8.516;2023-01-25T04:33:28;4.00;99.90
42099;DHT22;27758;55.900;8.516;2023-01-25T04:35:54;4.10;99.90
42099;DHT22;27758;55.900;8.516;2023-01-25T04:38:20;4.10;99.90
42099;DHT22;27758;55.900;8.516;2023-01-25T04:40:46;4.00;99.90
42099;DHT22;27758;55.900;8.516;2023-01-25T04:43:13;4.00;99.90
42099;DHT22;27758;55.900;8.516;2023-01-25T04:45:39;4.10;99.90
42099;DHT22;27758;55.900;8.516;2023-01-25T04:48:06;4.00;99.90
42099;DHT22;27758;55.900;8.516;2023-01-25T04:50:39;4.10;99.90
42099;DHT22;27758;55.900;8.516;2023-01-25T04:53:07;4.10;99.90
42099;DHT22;27758;55.900;8.516;2023-01-25T04:55:33;4.10;99.90
42099;DHT22;27758;55.900;8.516;2023-01-25T04:57:59;4.10;99.90
42099;DHT22;27758;55.900;8.516;2023-01-25T05:00:25;4.20;99.90
42099;DHT22;27758;55.900;8.516;2023-01-25T05:02:52;4.20;99.90
42099;DHT22;27758;55.900;8.516;2023-01-25T05:05:18;4.20;99.90
42099;DHT22;27758;55.900;8.516;2023-01-25T05:07:44;4.20;99.90
42099;DHT22;27758;55.900;8.516;2023-01-25T05:10:10;4.20;99.90
42099;DHT22;27758;55.900;8.516;2023-01-25T05:12:36;4.20;99.90
42099;DHT22;27758;55.900;8.516;2023-01-25T05:15:02;4.20;99.90
42099;DHT22;27758;55.900;8.516;2023-01-25T05:17:27;4.20;99.90
42099;DHT22;27758;55.900;8.516;2023-01-25T05:19:53;4.20;99.90
42099;DHT22;27758;55.900;8.516;2023-01-25T05:22:19;4.20;99.90
42099;DHT22;27758;55.900;8.516;2023-01-25T05:24:48;4.20;99.90
42099;DHT22;27758;55.900;8.516;2023-01-25T05:27:16;4.20;99.90
42099;DHT22;27758;55.900;8.516;2023-01-25T05:29:43;4.20;99.90
42099;DHT22;27758;55.900;8.516;2023-01-25T05:32:15;4.10;99.90
42099;DHT22;27758;55.900;8.516;2023-01-25T05:34:41;4.20;99.90
42099;DHT22;27758;55.900;8.516;2023-01-25T05:37:12;4.20;99.90
42099;DHT22;27758;55.900;8.516;2023-01-25T05:39:38;4.20;99.90
42099;DHT22;27758;55.900;8.516;2023-01-25T05:42:11;4.20;99.90
42099;DHT22;27758;55.900;8.516;2023-01-25T05:44:38;4.20;99.90
42099;DHT22;27758;55.900;8.516;2023-01-25T05:47:03;4.20;99.90
42099;DHT22;27758;55.900;8.516;2023-01-25T05:49:29;4.10;99.90
42099;DHT22;27758;55.900;8.516;2023-01-25T05:51:55;4.20;99.90
42099;DHT22;27758;55.900;8.516;2023-01-25T05:54:21;4.20;99.90
42099;DHT22;27758;55.900;8.516;2023-01-25T05:56:48;4.10;99.90
42099;DHT22;27758;55.900;8.516;2023-01-25T05:59:15;4.10;99.90
42099;DHT22;27758;55.900;8.516;2023-01-25T06:01:42;4.10;99.90
42099;DHT22;27758;55.900;8.516;2023-01-25T06:04:17;4.20;99.90
42099;DHT22;27758;55.900;8.516;2023-01-25T06:06:43;4.10;99.90
42099;DHT22;27758;55.900;8.516;2023-01-25T06:09:12;4.10;99.90
42099;DHT22;27758;55.900;8.516;2023-01-25T06:11:38;4.10;99.90
42099;DHT22;27758;55.900;8.516;2023-01-25T06:14:04;4.10;99.90
42099;DHT22;27758;55.900;8.516;2023-01-25T06:16:30;4.10;99.90
42099;DHT22;27758;55.900;8.516;2023-01-25T06:18:55;4.10;99.90
42099;DHT22;27758;55.900;8.516;2023-01-25T06:21:21;4.10;99.90
42099;DHT22;27758;55.900;8.516;2023-01-25T06:23:47;4.10;99.90
42099;DHT22;27758;55.900;8.516;2023-01-25T06:26:14;4.20;99.90
42099;DHT22;27758;55.900;8.516;2023-01-25T06:28:40;4.10;99.90
42099;DHT22;27758;55.900;8.516;2023-01-25T06:31:14;4.10;99.90
42099;DHT22;27758;55.900;8.516;2023-01-25T06:33:41;4.10;99.90
42099;DHT22;27758;55.900;8.516;2023-01-25T06:36:11;4.10;99.90
42099;DHT22;27758;55.900;8.516;2023-01-25T06:38:37;4.10;99.90
42099;DHT22;27758;55.900;8.516;2023-01-25T06:41:05;4.20;99.90
42099;DHT22;27758;55.900;8.516;2023-01-25T06:43:32;4.20;99.90
42099;DHT22;27758;55.900;8.516;2023-01-25T06:46:03;4.20;99.90
42099;DHT22;27758;55.900;8.516;2023-01-25T06:48:30;4.10;99.90
42099;DHT22;27758;55.900;8.516;2023-01-25T06:51:02;4.10;99.90
42099;DHT22;27758;55.900;8.516;2023-01-25T06:53:32;4.10;99.90
42099;DHT22;27758;55.900;8.516;2023-01-25T06:58:28;4.10;99.90
42099;DHT22;27758;55.900;8.516;2023-01-25T07:01:12;4.20;99.90
42099;DHT22;27758;55.900;8.516;2023-01-25T07:03:38;4.20;99.90
42099;DHT22;27758;55.900;8.516;2023-01-25T07:06:05;4.20;99.90
42099;DHT22;27758;55.900;8.516;2023-01-25T07:08:32;4.20;99.90
42099;DHT22;27758;55.900;8.516;2023-01-25T07:11:04;4.20;99.90
42099;DHT22;27758;55.900;8.516;2023-01-25T07:13:31;4.20;99.90
42099;DHT22;27758;55.900;8.516;2023-01-25T07:15:59;4.20;99.90
42099;DHT22;27758;55.900;8.516;2023-01-25T07:18:27;4.20;99.90
42099;DHT22;27758;55.900;8.516;2023-01-25T07:20:54;4.20;99.90
42099;DHT22;27758;55.900;8.516;2023-01-25T07:23:20;4.20;99.90
42099;DHT22;27758;55.900;8.516;2023-01-25T07:25:47;4.20;99.90
42099;DHT22;27758;55.900;8.516;2023-01-25T07:28:14;4.20;99.90
42099;DHT22;27758;55.900;8.516;2023-01-25T07:30:41;4.20;99.90
42099;DHT22;27758;55.900;8.516;2023-01-25T07:33:10;4.20;99.90
42099;DHT22;27758;55.900;8.516;2023-01-25T07:35:36;4.20;99.90
42099;DHT22;27758;55.900;8.516;2023-01-25T07:38:02;4.20;99.90
42099;DHT22;27758;55.900;8.516;2023-01-25T07:40:28;4.20;99.90
42099;DHT22;27758;55.900;8.516;2023-01-25T07:42:54;4.20;99.90
42099;DHT22;27758;55.900;8.516;2023-01-25T07:45:20;4.20;99.90
42099;DHT22;27758;55.900;8.516;2023-01-25T07:47:45;4.20;99.90
42099;DHT22;27758;55.900;8.516;2023-01-25T07:50:12;4.20;99.90
42099;DHT22;27758;55.900;8.516;2023-01-25T07:52:38;4.20;99.90
42099;DHT22;27758;55.900;8.516;2023-01-25T07:55:04;4.20;99.90
42099;DHT22;27758;55.900;8.516;2023-01-25T07:57:30;4.20;99.90
42099;DHT22;27758;55.900;8.516;2023-01-25T07:59:56;4.20;99.90
42099;DHT22;27758;55.900;8.516;2023-01-25T08:02:25;4.30;99.90
42099;DHT22;27758;55.900;8.516;2023-01-25T08:04:50;4.30;99.90
42099;DHT22;27758;55.900;8.516;2023-01-25T08:07:16;4.30;99.90
42099;DHT22;27758;55.900;8.516;2023-01-25T08:09:42;4.30;99.90
42099;DHT22;27758;55.900;8.516;2023-01-25T08:12:11;4.30;99.90
42099;DHT22;27758;55.900;8.516;2023-01-25T08:14:40;4.20;99.90
42099;DHT22;27758;55.900;8.516;2023-01-25T08:17:06;4.30;99.90
42099;DHT22;27758;55.900;8.516;2023-01-25T08:19:32;4.30;99.90
42099;DHT22;27758;55.900;8.516;2023-01-25T08:21:58;4.30;99.90
42099;DHT22;27758;55.900;8.516;2023-01-25T08:24:23;4.30;99.90
42099;DHT22;27758;55.900;8.516;2023-01-25T08:26:49;4.30;99.90
42099;DHT22;27758;55.900;8.516;2023-01-25T08:29:15;4.40;99.90
42099;DHT22;27758;55.900;8.516;2023-01-25T08:31:41;4.40;99.90
42099;DHT22;27758;55.900;8.516;2023-01-25T08:34:08;4.30;99.90
42099;DHT22;27758;55.900;8.516;2023-01-25T08:36:39;4.40;99.90
42099;DHT22;27758;55.900;8.516;2023-01-25T08:39:06;4.40;99.90
42099;DHT22;27758;55.900;8.516;2023-01-25T08:41:33;4.50;99.90
42099;DHT22;27758;55.900;8.516;2023-01-25T08:43:59;4.50;99.90
42099;DHT22;27758;55.900;8.516;2023-01-25T08:46:27;4.40;99.90
42099;DHT22;27758;55.900;8.516;2023-01-25T08:48:54;4.40;99.90
42099;DHT22;27758;55.900;8.516;2023-01-25T08:51:21;4.50;99.90
42099;DHT22;27758;55.900;8.516;2023-01-25T08:53:47;4.50;99.90
42099;DHT22;27758;55.900;8.516;2023-01-25T08:56:14;4.50;99.90
42099;DHT22;27758;55.900;8.516;2023-01-25T08:58:43;4.40;99.90
42099;DHT22;27758;55.900;8.516;2023-01-25T09:01:10;4.40;99.90
42099;DHT22;27758;55.900;8.516;2023-01-25T09:03:38;4.50;99.90
42099;DHT22;27758;55.900;8.516;2023-01-25T09:06:05;4.50;99.90
42099;DHT22;27758;55.900;8.516;2023-01-25T09:08:31;4.50;99.90
42099;DHT22;27758;55.900;8.516;2023-01-25T09:11:04;4.50;99.90
42099;DHT22;27758;55.900;8.516;2023-01-25T09:13:30;4.50;99.90
42099;DHT22;27758;55.900;8.516;2023-01-25T09:16:06;4.50;99.90
42099;DHT22;27758;55.900;8.516;2023-01-25T09:18:35;4.60;99.90
42099;DHT22;27758;55.900;8.516;2023-01-25T09:21:09;4.50;99.90
42099;DHT22;27758;55.900;8.516;2023-01-25T09:23:35;4.50;99.90
42099;DHT22;27758;55.900;8.516;2023-01-25T09:26:02;4.60;99.90
42099;DHT22;27758;55.900;8.516;2023-01-25T09:28:28;4.60;99.90
42099;DHT22;27758;55.900;8.516;2023-01-25T09:31:02;4.60;99.90
42099;DHT22;27758;55.900;8.516;2023-01-25T09:33:32;4.60;99.90
42099;DHT22;27758;55.900;8.516;2023-01-25T09:35:58;4.60;99.90
42099;DHT22;27758;55.900;8.516;2023-01-25T09:38:24;4.70;99.90
42099;DHT22;27758;55.900;8.516;2023-01-25T09:55:29;4.80;99.90
42099;DHT22;27758;55.900;8.516;2023-01-25T09:57:57;4.80;99.90
42099;DHT22;27758;55.900;8.516;2023-01-25T10:00:35;4.80;99.90
42099;DHT22;27758;55.900;8.516;2023-01-25T10:05:46;4.90;99.90
42099;DHT22;27758;55.900;8.516;2023-01-25T10:08:38;4.90;99.90
42099;DHT22;27758;55.900;8.516;2023-01-25T10:11:25;4.90;99.90
42099;DHT22;27758;55.900;8.516;2023-01-25T10:13:53;4.90;99.90
42099;DHT22;27758;55.900;8.516;2023-01-25T10:24:52;5.00;99.90
42099;DHT22;27758;55.900;8.516;2023-01-25T10:30:26;5.00;99.90
42099;DHT22;27758;55.900;8.516;2023-01-25T10:32:56;5.00;99.90
42099;DHT22;27758;55.900;8.516;2023-01-25T10:35:30;5.00;99.90
42099;DHT22;27758;55.900;8.516;2023-01-25T10:38:06;5.00;99.90
42099;DHT22;27758;55.900;8.516;2023-01-25T10:40:50;5.10;99.90
42099;DHT22;27758;55.900;8.516;2023-01-25T10:43:19;5.00;99.90
42099;DHT22;27758;55.900;8.516;2023-01-25T10:45:46;5.10;99.90
42099;DHT22;27758;55.900;8.516;2023-01-25T10:48:34;5.10;99.90
42099;DHT22;27758;55.900;8.516;2023-01-25T10:51:01;5.00;99.90
42099;DHT22;27758;55.900;8.516;2023-01-25T10:53:35;5.00;99.90
42099;DHT22;27758;55.900;8.516;2023-01-25T10:58:39;5.10;99.90
42099;DHT22;27758;55.900;8.516;2023-01-25T11:01:12;5.10;99.90
42099;DHT22;27758;55.900;8.516;2023-01-25T11:03:42;5.10;99.90
42099;DHT22;27758;55.900;8.516;2023-01-25T11:06:09;5.10;99.90
42099;DHT22;27758;55.900;8.516;2023-01-25T11:08:37;5.10;99.90
42099;DHT22;27758;55.900;8.516;2023-01-25T11:11:36;5.10;99.90
42099;DHT22;27758;55.900;8.516;2023-01-25T11:14:16;5.10;99.90
42099;DHT22;27758;55.900;8.516;2023-01-25T11:16:45;5.10;99.90
42099;DHT22;27758;55.900;8.516;2023-01-25T11:21:58;5.10;99.90
42099;DHT22;27758;55.900;8.516;2023-01-25T11:24:30;5.10;99.90
42099;DHT22;27758;55.900;8.516;2023-01-25T11:29:44;5.10;99.90
42099;DHT22;27758;55.900;8.516;2023-01-25T11:32:21;5.00;99.90
42099;DHT22;27758;55.900;8.516;2023-01-25T11:34:50;5.00;99.90
42099;DHT22;27758;55.900;8.516;2023-01-25T11:37:34;5.00;99.90
42099;DHT22;27758;55.900;8.516;2023-01-25T11:43:06;5.00;99.90
42099;DHT22;27758;55.900;8.516;2023-01-25T11:48:32;5.00;99.90
42099;DHT22;27758;55.900;8.516;2023-01-25T11:51:18;5.00;99.90
42099;DHT22;27758;55.900;8.516;2023-01-25T11:54:18;5.00;99.90
42099;DHT22;27758;55.900;8.516;2023-01-25T12:00:14;5.00;99.90
42099;DHT22;27758;55.900;8.516;2023-01-25T12:13:54;5.10;99.90
42099;DHT22;27758;55.900;8.516;2023-01-25T12:19:36;5.10;99.90
42099;DHT22;27758;55.900;8.516;2023-01-25T12:23:13;5.20;99.90
42099;DHT22;27758;55.900;8.516;2023-01-25T12:33:24;5.20;99.90
42099;DHT22;27758;55.900;8.516;2023-01-25T12:36:19;5.20;99.90
42099;DHT22;27758;55.900;8.516;2023-01-25T12:38:56;5.20;99.90
42099;DHT22;27758;55.900;8.516;2023-01-25T12:43:56;5.20;99.90
42099;DHT22;27758;55.900;8.516;2023-01-25T12:46:30;5.20;99.90
42099;DHT22;27758;55.900;8.516;2023-01-25T12:49:02;5.20;99.90
42099;DHT22;27758;55.900;8.516;2023-01-25T12:51:36;5.20;99.90
42099;DHT22;27758;55.900;8.516;2023-01-25T12:54:12;5.20;99.90
42099;DHT22;27758;55.900;8.516;2023-01-25T12:56:52;5.20;99.90
42099;DHT22;27758;55.900;8.516;2023-01-25T13:07:54;5.20;99.90
42099;DHT22;27758;55.900;8.516;2023-01-25T13:10:30;5.20;99.90
42099;DHT22;27758;55.900;8.516;2023-01-25T13:13:02;5.20;99.90
42099;DHT22;27758;55.900;8.516;2023-01-25T13:15:44;5.20;99.90
42099;DHT22;27758;55.900;8.516;2023-01-25T13:20:56;5.20;99.90
42099;DHT22;27758;55.900;8.516;2023-01-25T13:28:48;5.10;99.90
42099;DHT22;27758;55.900;8.516;2023-01-25T13:36:54;5.10;99.90
42099;DHT22;27758;55.900;8.516;2023-01-25T13:39:51;5.10;99.90
42099;DHT22;27758;55.900;8.516;2023-01-25T13:42:26;5.10;99.90
42099;DHT22;27758;55.900;8.516;2023-01-25T13:45:00;5.10;99.90
42099;DHT22;27758;55.900;8.516;2023-01-25T13:47:32;5.10;99.90
42099;DHT22;27758;55.900;8.516;2023-01-25T13:53:26;5.10;99.90
42099;DHT22;27758;55.900;8.516;2023-01-25T13:55:58;5.20;99.90
42099;DHT22;27758;55.900;8.516;2023-01-25T13:58:31;5.10;99.90
42099;DHT22;27758;55.900;8.516;2023-01-25T14:01:02;5.10;99.90
42099;DHT22;27758;55.900;8.516;2023-01-25T14:03:42;5.10;99.90
42099;DHT22;27758;55.900;8.516;2023-01-25T14:06:25;5.20;99.90
42099;DHT22;27758;55.900;8.516;2023-01-25T14:08:54;5.20;99.90
42099;DHT22;27758;55.900;8.516;2023-01-25T14:11:22;5.20;99.90
42099;DHT22;27758;55.900;8.516;2023-01-25T14:16:25;5.20;99.90
42099;DHT22;27758;55.900;8.516;2023-01-25T14:18:52;5.20;99.90
42099;DHT22;27758;55.900;8.516;2023-01-25T14:21:20;5.30;99.90
42099;DHT22;27758;55.900;8.516;2023-01-25T14:23:46;5.20;99.90
42099;DHT22;27758;55.900;8.516;2023-01-25T14:28:46;5.30;99.90
42099;DHT22;27758;55.900;8.516;2023-01-25T14:31:22;5.20;99.90
42099;DHT22;27758;55.900;8.516;2023-01-25T14:33:49;5.20;99.90
42099;DHT22;27758;55.900;8.516;2023-01-25T14:36:20;5.20;99.90
42099;DHT22;27758;55.900;8.516;2023-01-25T14:38:46;5.20;99.90
42099;DHT22;27758;55.900;8.516;2023-01-25T14:43:49;5.20;99.90
42099;DHT22;27758;55.900;8.516;2023-01-25T14:46:29;5.20;99.90
42099;DHT22;27758;55.900;8.516;2023-01-25T14:54:16;5.20;99.90
42099;DHT22;27758;55.900;8.516;2023-01-25T14:56:48;5.20;99.90
42099;DHT22;27758;55.900;8.516;2023-01-25T14:59:38;5.20;99.90
42099;DHT22;27758;55.900;8.516;2023-01-25T15:05:35;5.30;99.90
42099;DHT22;27758;55.900;8.516;2023-01-25T15:13:20;5.30;99.90
42099;DHT22;27758;55.900;8.516;2023-01-25T15:16:00;5.30;99.90
42099;DHT22;27758;55.900;8.516;2023-01-25T15:18:49;5.30;99.90
42099;DHT22;27758;55.900;8.516;2023-01-25T15:21:31;5.40;99.90
42099;DHT22;27758;55.900;8.516;2023-01-25T15:24:02;5.30;99.90
42099;DHT22;27758;55.900;8.516;2023-01-25T15:26:33;5.30;99.90
42099;DHT22;27758;55.900;8.516;2023-01-25T15:29:09;5.30;99.90
42099;DHT22;27758;55.900;8.516;2023-01-25T15:31:36;5.40;99.90
42099;DHT22;27758;55.900;8.516;2023-01-25T15:34:03;5.40;99.90
42099;DHT22;27758;55.900;8.516;2023-01-25T15:36:30;5.30;99.90
42099;DHT22;27758;55.900;8.516;2023-01-25T15:38:56;5.40;99.90
42099;DHT22;27758;55.900;8.516;2023-01-25T15:41:22;5.40;99.90
42099;DHT22;27758;55.900;8.516;2023-01-25T15:43:48;5.40;99.90
42099;DHT22;27758;55.900;8.516;2023-01-25T15:46:21;5.40;99.90
42099;DHT22;27758;55.900;8.516;2023-01-25T15:48:49;5.40;99.90
42099;DHT22;27758;55.900;8.516;2023-01-25T15:51:15;5.40;99.90
42099;DHT22;27758;55.900;8.516;2023-01-25T15:53:41;5.40;99.90
42099;DHT22;27758;55.900;8.516;2023-01-25T15:56:19;5.40;99.90
42099;DHT22;27758;55.900;8.516;2023-01-25T15:58:52;5.40;99.90
42099;DHT22;27758;55.900;8.516;2023-01-25T16:01:18;5.50;99.90
42099;DHT22;27758;55.900;8.516;2023-01-25T16:03:44;5.50;99.90
42099;DHT22;27758;55.900;8.516;2023-01-25T16:08:59;5.50;99.90
42099;DHT22;27758;55.900;8.516;2023-01-25T16:11:26;5.50;99.90
42099;DHT22;27758;55.900;8.516;2023-01-25T16:13:52;5.60;99.90
42099;DHT22;27758;55.900;8.516;2023-01-25T16:16:20;5.60;99.90
42099;DHT22;27758;55.900;8.516;2023-01-25T16:18:46;5.60;99.90
42099;DHT22;27758;55.900;8.516;2023-01-25T16:21:12;5.50;99.90
42099;DHT22;27758;55.900;8.516;2023-01-25T16:23:38;5.50;99.90
42099;DHT22;27758;55.900;8.516;2023-01-25T16:26:25;5.60;99.90
42099;DHT22;27758;55.900;8.516;2023-01-25T16:28:51;5.60;99.90
42099;DHT22;27758;55.900;8.516;2023-01-25T16:31:17;5.60;99.90
42099;DHT22;27758;55.900;8.516;2023-01-25T16:33:43;5.60;99.90
42099;DHT22;27758;55.900;8.516;2023-01-25T16:38:35;5.60;99.90
42099;DHT22;27758;55.900;8.516;2023-01-25T16:41:00;5.70;99.90
42099;DHT22;27758;55.900;8.516;2023-01-25T16:43:26;5.70;99.90
42099;DHT22;27758;55.900;8.516;2023-01-25T16:45:58;5.70;99.90
42099;DHT22;27758;55.900;8.516;2023-01-25T16:48:24;5.70;99.90
42099;DHT22;27758;55.900;8.516;2023-01-25T16:50:50;5.70;99.90
42099;DHT22;27758;55.900;8.516;2023-01-25T16:53:16;5.70;99.90
42099;DHT22;27758;55.900;8.516;2023-01-25T16:55:42;5.70;99.90
42099;DHT22;27758;55.900;8.516;2023-01-25T16:58:08;5.70;99.90
42099;DHT22;27758;55.900;8.516;2023-01-25T17:00:34;5.80;99.90
42099;DHT22;27758;55.900;8.516;2023-01-25T17:02:59;5.80;99.90
42099;DHT22;27758;55.900;8.516;2023-01-25T17:05:26;5.80;99.90
42099;DHT22;27758;55.900;8.516;2023-01-25T17:07:55;5.80;99.90
42099;DHT22;27758;55.900;8.516;2023-01-25T17:10:21;5.80;99.90
42099;DHT22;27758;55.900;8.516;2023-01-25T17:12:47;5.80;99.90
42099;DHT22;27758;55.900;8.516;2023-01-25T17:15:14;5.90;99.90
42099;DHT22;27758;55.900;8.516;2023-01-25T17:17:39;5.90;99.90
42099;DHT22;27758;55.900;8.516;2023-01-25T17:20:05;5.90;99.90
42099;DHT22;27758;55.900;8.516;2023-01-25T17:22:32;5.90;99.90
42099;DHT22;27758;55.900;8.516;2023-01-25T17:25:03;5.90;99.90
42099;DHT22;27758;55.900;8.516;2023-01-25T17:27:29;5.90;99.90
42099;DHT22;27758;55.900;8.516;2023-01-25T17:29:54;5.90;99.90
42099;DHT22;27758;55.900;8.516;2023-01-25T17:32:20;5.90;99.90
42099;DHT22;27758;55.900;8.516;2023-01-25T17:34:46;5.90;99.90
42099;DHT22;27758;55.900;8.516;2023-01-25T17:37:12;5.90;99.90
42099;DHT22;27758;55.900;8.516;2023-01-25T17:39:37;5.90;99.90
42099;DHT22;27758;55.900;8.516;2023-01-25T17:42:03;5.90;99.90
42099;DHT22;27758;55.900;8.516;2023-01-25T17:44:30;5.90;99.90
42099;DHT22;27758;55.900;8.516;2023-01-25T17:46:56;5.90;99.90
42099;DHT22;27758;55.900;8.516;2023-01-25T17:49:22;5.90;99.90
42099;DHT22;27758;55.900;8.516;2023-01-25T17:51:49;5.90;99.90
42099;DHT22;27758;55.900;8.516;2023-01-25T17:54:15;5.90;99.90
42099;DHT22;27758;55.900;8.516;2023-01-25T17:56:41;5.90;99.90
42099;DHT22;27758;55.900;8.516;2023-01-25T17:59:06;5.90;99.90
42099;DHT22;27758;55.900;8.516;2023-01-25T18:01:36;5.90;99.90
42099;DHT22;27758;55.900;8.516;2023-01-25T18:04:07;5.90;99.90
42099;DHT22;27758;55.900;8.516;2023-01-25T18:06:34;5.90;99.90
42099;DHT22;27758;55.900;8.516;2023-01-25T18:09:01;5.90;99.90
42099;DHT22;27758;55.900;8.516;2023-01-25T18:11:29;6.00;99.90
42099;DHT22;27758;55.900;8.516;2023-01-25T18:14:01;6.00;99.90
42099;DHT22;27758;55.900;8.516;2023-01-25T18:16:29;6.00;99.90
42099;DHT22;27758;55.900;8.516;2023-01-25T18:18:56;6.00;99.90